sensor_id;sensor_type;location;lat;lon;timestamp;pressure;altitude;pressure_sealevel;temperature;humidity
38197;BME280;26543;51.976;4.616;2022-07-29T00:00:13;52287.38;;;-140.72;100.00
38197;BME280;26543;51.976;4.616;2022-07-29T00:02:38;52338.09;;;-140.72;100.00
38197;BME280;26543;51.976;4.616;2022-07-29T00:05:04;52325.94;;;-140.72;100.00
38197;BME280;26543;51.976;4.616;2022-07-29T00:07:32;52303.59;;;-140.72;100.00
38197;BME280;26543;51.976;4.616;2022-07-29T00:09:57;52342.16;;;-140.72;100.00
38197;BME280;26543;51.976;4.616;2022-07-29T00:12:23;52336.06;;;-140.72;100.00
38197;BME280;26543;51.976;4.616;2022-07-29T00:14:48;52330.00;;;-140.72;100.00
38197;BME280;26543;51.976;4.616;2022-07-29T00:17:13;52332.03;;;-140.72;100.00
38197;BME280;26543;51.976;4.616;2022-07-29T00:19:39;52305.63;;;-140.72;100.00
38197;BME280;26543;51.976;4.616;2022-07-29T00:22:04;52336.06;;;-140.72;100.00
38197;BME280;26543;51.976;4.616;2022-07-29T00:24:29;52313.75;;;-140.72;100.00
38197;BME280;26543;51.976;4.616;2022-07-29T00:26:54;52344.19;;;-140.72;100.00
38197;BME280;26543;51.976;4.616;2022-07-29T00:29:20;52317.81;;;-140.72;100.00
38197;BME280;26543;51.976;4.616;2022-07-29T00:31:45;52330.00;;;-140.72;100.00
38197;BME280;26543;51.976;4.616;2022-07-29T00:34:10;52342.16;;;-140.72;100.00
38197;BME280;26543;51.976;4.616;2022-07-29T00:36:55;52342.16;;;-140.72;100.00
38197;BME280;26543;51.976;4.616;2022-07-29T00:39:21;52311.72;;;-140.72;100.00
38197;BME280;26543;51.976;4.616;2022-07-29T00:41:46;52342.16;;;-140.72;100.00
38197;BME280;26543;51.976;4.616;2022-07-29T00:44:11;52376.66;;;-140.72;100.00
38197;BME280;26543;51.976;4.616;2022-07-29T00:46:36;52346.22;;;-140.72;100.00
38197;BME280;26543;51.976;4.616;2022-07-29T00:49:02;52358.41;;;-140.72;100.00
38197;BME280;26543;51.976;4.616;2022-07-29T00:51:27;52356.38;;;-140.72;100.00
38197;BME280;26543;51.976;4.616;2022-07-29T00:53:52;52358.41;;;-140.72;100.00
38197;BME280;26543;51.976;4.616;2022-07-29T00:56:18;52346.22;;;-140.72;100.00
38197;BME280;26543;51.976;4.616;2022-07-29T00:58:43;52354.34;;;-140.72;100.00
38197;BME280;26543;51.976;4.616;2022-07-29T01:01:09;52354.34;;;-140.72;100.00
38197;BME280;26543;51.976;4.616;2022-07-29T01:03:35;52386.81;;;-140.72;100.00
38197;BME280;26543;51.976;4.616;2022-07-29T01:06:00;52358.41;;;-140.72;100.00
38197;BME280;26543;51.976;4.616;2022-07-29T01:08:25;52378.69;;;-140.72;100.00
38197;BME280;26543;51.976;4.616;2022-07-29T01:10:50;52311.72;;;-140.72;100.00
38197;BME280;26543;51.976;4.616;2022-07-29T01:13:16;52413.19;;;-140.72;100.00
38197;BME280;26543;51.976;4.616;2022-07-29T01:15:52;52364.47;;;-140.72;100.00
38197;BME280;26543;51.976;4.616;2022-07-29T01:18:24;52340.13;;;-140.72;100.00
38197;BME280;26543;51.976;4.616;2022-07-29T01:28:57;52350.28;;;-140.72;100.00
38197;BME280;26543;51.976;4.616;2022-07-29T01:31:16;52358.41;;;-140.72;100.00
38197;BME280;26543;51.976;4.616;2022-07-29T01:33:45;52336.06;;;-140.72;100.00
38197;BME280;26543;51.976;4.616;2022-07-29T01:36:14;52338.09;;;-140.72;100.00
38197;BME280;26543;51.976;4.616;2022-07-29T01:38:41;52376.66;;;-140.72;100.00
38197;BME280;26543;51.976;4.616;2022-07-29T01:41:12;52325.94;;;-140.72;100.00
38197;BME280;26543;51.976;4.616;2022-07-29T01:43:49;52327.97;;;-140.72;100.00
38197;BME280;26543;51.976;4.616;2022-07-29T01:46:32;52364.47;;;-140.72;100.00
38197;BME280;26543;51.976;4.616;2022-07-29T01:49:00;52366.50;;;-140.72;100.00
38197;BME280;26543;51.976;4.616;2022-07-29T01:51:34;52368.53;;;-140.72;100.00
38197;BME280;26543;51.976;4.616;2022-07-29T01:54:18;52356.38;;;-140.72;100.00
38197;BME280;26543;51.976;4.616;2022-07-29T01:56:45;52370.56;;;-140.72;100.00
38197;BME280;26543;51.976;4.616;2022-07-29T01:59:11;52401.00;;;-140.72;100.00
38197;BME280;26543;51.976;4.616;2022-07-29T02:01:37;52362.44;;;-140.72;100.00
38197;BME280;26543;51.976;4.616;2022-07-29T02:04:04;52366.50;;;-140.72;100.00
38197;BME280;26543;51.976;4.616;2022-07-29T02:06:32;52358.41;;;-140.72;100.00
38197;BME280;26543;51.976;4.616;2022-07-29T02:08:58;52392.88;;;-140.72;100.00
38197;BME280;26543;51.976;4.616;2022-07-29T02:11:23;52372.59;;;-140.72;100.00
38197;BME280;26543;51.976;4.616;2022-07-29T02:13:49;52380.72;;;-140.72;100.00
38197;BME280;26543;51.976;4.616;2022-07-29T02:16:17;52370.56;;;-140.72;100.00
38197;BME280;26543;51.976;4.616;2022-07-29T02:18:43;52374.63;;;-140.72;100.00
38197;BME280;26543;51.976;4.616;2022-07-29T02:21:10;52330.00;;;-140.72;100.00
38197;BME280;26543;51.976;4.616;2022-07-29T02:23:37;52411.16;;;-140.72;100.00
38197;BME280;26543;51.976;4.616;2022-07-29T02:26:04;52342.16;;;-140.72;100.00
38197;BME280;26543;51.976;4.616;2022-07-29T02:28:29;52368.53;;;-140.72;100.00
38197;BME280;26543;51.976;4.616;2022-07-29T02:30:57;52386.81;;;-140.72;100.00
38197;BME280;26543;51.976;4.616;2022-07-29T02:33:23;52366.50;;;-140.72;100.00
38197;BME280;26543;51.976;4.616;2022-07-29T02:35:49;52388.84;;;-140.72;100.00
38197;BME280;26543;51.976;4.616;2022-07-29T02:38:15;52342.16;;;-140.72;100.00
38197;BME280;26543;51.976;4.616;2022-07-29T02:41:07;52394.91;;;-140.72;100.00
38197;BME280;26543;51.976;4.616;2022-07-29T02:43:33;52366.50;;;-140.72;100.00
38197;BME280;26543;51.976;4.616;2022-07-29T02:46:00;52366.50;;;-140.72;100.00
38197;BME280;26543;51.976;4.616;2022-07-29T02:48:36;52358.41;;;-140.72;100.00
38197;BME280;26543;51.976;4.616;2022-07-29T02:51:19;52366.50;;;-140.72;100.00
38197;BME280;26543;51.976;4.616;2022-07-29T02:53:48;52346.22;;;-140.72;100.00
38197;BME280;26543;51.976;4.616;2022-07-29T02:56:16;52411.16;;;-140.72;100.00
38197;BME280;26543;51.976;4.616;2022-07-29T02:58:47;52380.72;;;-140.72;100.00
38197;BME280;26543;51.976;4.616;2022-07-29T03:01:15;52368.53;;;-140.72;100.00
38197;BME280;26543;51.976;4.616;2022-07-29T03:03:40;52350.28;;;-140.72;100.00
38197;BME280;26543;51.976;4.616;2022-07-29T03:06:07;52340.13;;;-140.72;100.00
38197;BME280;26543;51.976;4.616;2022-07-29T03:08:33;52398.97;;;-140.72;100.00
38197;BME280;26543;51.976;4.616;2022-07-29T03:10:59;52376.66;;;-140.72;100.00
38197;BME280;26543;51.976;4.616;2022-07-29T03:13:25;52388.84;;;-140.72;100.00
38197;BME280;26543;51.976;4.616;2022-07-29T03:15:52;52380.72;;;-140.72;100.00
38197;BME280;26543;51.976;4.616;2022-07-29T03:18:18;52346.22;;;-140.72;100.00
38197;BME280;26543;51.976;4.616;2022-07-29T03:20:43;52350.28;;;-140.72;100.00
38197;BME280;26543;51.976;4.616;2022-07-29T03:23:09;52362.44;;;-140.72;100.00
38197;BME280;26543;51.976;4.616;2022-07-29T03:25:34;52376.66;;;-140.72;100.00
38197;BME280;26543;51.976;4.616;2022-07-29T03:27:59;52392.88;;;-140.72;100.00
38197;BME280;26543;51.976;4.616;2022-07-29T03:30:25;52403.03;;;-140.72;100.00
38197;BME280;26543;51.976;4.616;2022-07-29T03:32:50;52398.97;;;-140.72;100.00
38197;BME280;26543;51.976;4.616;2022-07-29T03:35:16;52342.16;;;-140.72;100.00
38197;BME280;26543;51.976;4.616;2022-07-29T03:37:44;52405.06;;;-140.72;100.00
38197;BME280;26543;51.976;4.616;2022-07-29T03:40:10;52405.06;;;-140.72;100.00
38197;BME280;26543;51.976;4.616;2022-07-29T03:42:36;52366.50;;;-140.72;100.00
38197;BME280;26543;51.976;4.616;2022-07-29T03:45:03;52382.75;;;-140.72;100.00
38197;BME280;26543;51.976;4.616;2022-07-29T03:47:30;52392.88;;;-140.72;100.00
38197;BME280;26543;51.976;4.616;2022-07-29T03:49:59;52411.16;;;-140.72;100.00
38197;BME280;26543;51.976;4.616;2022-07-29T03:52:25;52394.91;;;-140.72;100.00
38197;BME280;26543;51.976;4.616;2022-07-29T03:54:50;52376.66;;;-140.72;100.00
38197;BME280;26543;51.976;4.616;2022-07-29T03:57:15;52405.06;;;-140.72;100.00
38197;BME280;26543;51.976;4.616;2022-07-29T03:59:41;52358.41;;;-140.72;100.00
38197;BME280;26543;51.976;4.616;2022-07-29T04:02:08;52394.91;;;-140.72;100.00
38197;BME280;26543;51.976;4.616;2022-07-29T04:04:34;52390.84;;;-140.72;100.00
38197;BME280;26543;51.976;4.616;2022-07-29T04:07:00;52390.84;;;-140.72;100.00
38197;BME280;26543;51.976;4.616;2022-07-29T04:09:25;52370.56;;;-140.72;100.00
38197;BME280;26543;51.976;4.616;2022-07-29T04:11:50;52352.31;;;-140.72;100.00
38197;BME280;26543;51.976;4.616;2022-07-29T04:14:16;52392.88;;;-140.72;100.00
38197;BME280;26543;51.976;4.616;2022-07-29T04:16:41;52425.34;;;-140.72;100.00
38197;BME280;26543;51.976;4.616;2022-07-29T04:19:06;52362.44;;;-140.72;100.00
38197;BME280;26543;51.976;4.616;2022-07-29T04:21:36;52392.88;;;-140.72;100.00
38197;BME280;26543;51.976;4.616;2022-07-29T04:24:01;52409.13;;;-140.72;100.00
38197;BME280;26543;51.976;4.616;2022-07-29T04:26:27;52405.06;;;-140.72;100.00
38197;BME280;26543;51.976;4.616;2022-07-29T04:28:52;52427.38;;;-140.72;100.00
38197;BME280;26543;51.976;4.616;2022-07-29T04:31:17;52415.22;;;-140.72;100.00
38197;BME280;26543;51.976;4.616;2022-07-29T04:33:42;52443.63;;;-140.72;100.00
38197;BME280;26543;51.976;4.616;2022-07-29T04:36:08;52396.94;;;-140.72;100.00
38197;BME280;26543;51.976;4.616;2022-07-29T04:38:33;52401.00;;;-140.72;100.00
38197;BME280;26543;51.976;4.616;2022-07-29T04:40:58;52403.03;;;-140.72;100.00
38197;BME280;26543;51.976;4.616;2022-07-29T04:43:23;52405.06;;;-140.72;100.00
38197;BME280;26543;51.976;4.616;2022-07-29T04:45:49;52415.22;;;-140.72;100.00
38197;BME280;26543;51.976;4.616;2022-07-29T04:48:14;52384.78;;;-140.72;100.00
38197;BME280;26543;51.976;4.616;2022-07-29T04:50:40;52394.91;;;-140.72;100.00
38197;BME280;26543;51.976;4.616;2022-07-29T04:53:05;52425.34;;;-140.72;100.00
38197;BME280;26543;51.976;4.616;2022-07-29T04:55:30;52390.84;;;-140.72;100.00
38197;BME280;26543;51.976;4.616;2022-07-29T04:57:55;52374.63;;;-140.72;100.00
38197;BME280;26543;51.976;4.616;2022-07-29T05:00:21;52427.38;;;-140.72;100.00
38197;BME280;26543;51.976;4.616;2022-07-29T05:02:48;52384.78;;;-140.72;100.00
38197;BME280;26543;51.976;4.616;2022-07-29T05:05:13;52384.78;;;-140.72;100.00
38197;BME280;26543;51.976;4.616;2022-07-29T05:07:38;52386.81;;;-140.72;100.00
38197;BME280;26543;51.976;4.616;2022-07-29T05:10:03;52415.22;;;-140.72;100.00
38197;BME280;26543;51.976;4.616;2022-07-29T05:12:29;52380.72;;;-140.72;100.00
38197;BME280;26543;51.976;4.616;2022-07-29T05:14:54;52390.84;;;-140.72;100.00
38197;BME280;26543;51.976;4.616;2022-07-29T05:17:19;52431.44;;;-140.72;100.00
38197;BME280;26543;51.976;4.616;2022-07-29T05:19:45;52390.84;;;-140.72;100.00
38197;BME280;26543;51.976;4.616;2022-07-29T05:22:10;52413.19;;;-140.72;100.00
38197;BME280;26543;51.976;4.616;2022-07-29T05:24:35;52415.22;;;-140.72;100.00
38197;BME280;26543;51.976;4.616;2022-07-29T05:27:00;52358.41;;;-140.72;100.00
38197;BME280;26543;51.976;4.616;2022-07-29T05:29:25;52409.13;;;-140.72;100.00
38197;BME280;26543;51.976;4.616;2022-07-29T05:31:51;52346.22;;;-140.72;100.00
38197;BME280;26543;51.976;4.616;2022-07-29T05:34:17;52413.19;;;-140.72;100.00
38197;BME280;26543;51.976;4.616;2022-07-29T05:36:43;52360.44;;;-140.72;100.00
38197;BME280;26543;51.976;4.616;2022-07-29T05:39:09;52374.63;;;-140.72;100.00
38197;BME280;26543;51.976;4.616;2022-07-29T05:41:34;52356.38;;;-140.72;100.00
38197;BME280;26543;51.976;4.616;2022-07-29T05:43:59;52325.94;;;-140.72;100.00
38197;BME280;26543;51.976;4.616;2022-07-29T05:46:24;52358.41;;;-140.72;100.00
38197;BME280;26543;51.976;4.616;2022-07-29T05:48:49;52350.28;;;-140.72;100.00
38197;BME280;26543;51.976;4.616;2022-07-29T05:51:15;52327.97;;;-140.72;100.00
38197;BME280;26543;51.976;4.616;2022-07-29T05:53:40;52336.06;;;-140.72;100.00
38197;BME280;26543;51.976;4.616;2022-07-29T05:56:05;52346.22;;;-140.72;100.00
38197;BME280;26543;51.976;4.616;2022-07-29T05:58:31;52332.03;;;-140.72;100.00
38197;BME280;26543;51.976;4.616;2022-07-29T06:00:56;52342.16;;;-140.72;100.00
38197;BME280;26543;51.976;4.616;2022-07-29T06:03:25;52321.88;;;-140.72;100.00
38197;BME280;26543;51.976;4.616;2022-07-29T06:05:50;52354.34;;;-140.72;100.00
38197;BME280;26543;51.976;4.616;2022-07-29T06:08:15;52323.91;;;-140.72;100.00
38197;BME280;26543;51.976;4.616;2022-07-29T06:10:42;52386.81;;;-140.72;100.00
38197;BME280;26543;51.976;4.616;2022-07-29T06:13:07;52358.41;;;-140.72;100.00
38197;BME280;26543;51.976;4.616;2022-07-29T06:15:32;52362.44;;;-140.72;100.00
38197;BME280;26543;51.976;4.616;2022-07-29T06:17:58;52342.16;;;-140.72;100.00
38197;BME280;26543;51.976;4.616;2022-07-29T06:20:23;52350.28;;;-140.72;100.00
38197;BME280;26543;51.976;4.616;2022-07-29T06:22:48;52344.19;;;-140.72;100.00
38197;BME280;26543;51.976;4.616;2022-07-29T06:25:13;52321.88;;;-140.72;100.00
38197;BME280;26543;51.976;4.616;2022-07-29T06:27:39;52325.94;;;-140.72;100.00
38197;BME280;26543;51.976;4.616;2022-07-29T06:30:04;52362.44;;;-140.72;100.00
38197;BME280;26543;51.976;4.616;2022-07-29T06:32:32;52334.03;;;-140.72;100.00
38197;BME280;26543;51.976;4.616;2022-07-29T06:34:57;52374.63;;;-140.72;100.00
38197;BME280;26543;51.976;4.616;2022-07-29T06:37:22;52348.25;;;-140.72;100.00
38197;BME280;26543;51.976;4.616;2022-07-29T06:39:47;52332.03;;;-140.72;100.00
38197;BME280;26543;51.976;4.616;2022-07-29T06:42:13;52338.09;;;-140.72;100.00
38197;BME280;26543;51.976;4.616;2022-07-29T06:44:38;52342.16;;;-140.72;100.00
38197;BME280;26543;51.976;4.616;2022-07-29T06:47:03;52354.34;;;-140.72;100.00
38197;BME280;26543;51.976;4.616;2022-07-29T06:49:28;52336.06;;;-140.72;100.00
38197;BME280;26543;51.976;4.616;2022-07-29T06:51:54;52358.41;;;-140.72;100.00
38197;BME280;26543;51.976;4.616;2022-07-29T06:54:19;52323.91;;;-140.72;100.00
38197;BME280;26543;51.976;4.616;2022-07-29T06:56:44;52358.41;;;-140.72;100.00
38197;BME280;26543;51.976;4.616;2022-07-29T06:59:10;52356.38;;;-140.72;100.00
38197;BME280;26543;51.976;4.616;2022-07-29T07:01:36;52327.97;;;-140.72;100.00
38197;BME280;26543;51.976;4.616;2022-07-29T07:04:02;52313.75;;;-140.72;100.00
38197;BME280;26543;51.976;4.616;2022-07-29T07:06:27;52317.81;;;-140.72;100.00
38197;BME280;26543;51.976;4.616;2022-07-29T07:08:53;52297.53;;;-140.72;100.00
38197;BME280;26543;51.976;4.616;2022-07-29T07:11:18;52281.28;;;-140.72;100.00
38197;BME280;26543;51.976;4.616;2022-07-29T07:13:43;52281.28;;;-140.72;100.00
38197;BME280;26543;51.976;4.616;2022-07-29T07:16:08;52291.44;;;-140.72;100.00
38197;BME280;26543;51.976;4.616;2022-07-29T07:18:34;52269.13;;;-140.72;100.00
38197;BME280;26543;51.976;4.616;2022-07-29T07:20:59;52271.16;;;-140.72;100.00
38197;BME280;26543;51.976;4.616;2022-07-29T07:23:24;52289.41;;;-140.72;100.00
38197;BME280;26543;51.976;4.616;2022-07-29T07:25:49;52295.50;;;-140.72;100.00
38197;BME280;26543;51.976;4.616;2022-07-29T07:28:15;52267.09;;;-140.72;100.00
38197;BME280;26543;51.976;4.616;2022-07-29T07:30:40;52265.06;;;-140.72;100.00
38197;BME280;26543;51.976;4.616;2022-07-29T07:33:05;52309.69;;;-140.72;100.00
38197;BME280;26543;51.976;4.616;2022-07-29T07:35:30;52273.19;;;-140.72;100.00
38197;BME280;26543;51.976;4.616;2022-07-29T07:37:56;52269.13;;;-140.72;100.00
38197;BME280;26543;51.976;4.616;2022-07-29T07:40:21;52275.19;;;-140.72;100.00
38197;BME280;26543;51.976;4.616;2022-07-29T07:42:46;52269.13;;;-140.72;100.00
38197;BME280;26543;51.976;4.616;2022-07-29T07:45:12;52261.00;;;-140.72;100.00
38197;BME280;26543;51.976;4.616;2022-07-29T07:47:37;52246.78;;;-140.72;100.00
38197;BME280;26543;51.976;4.616;2022-07-29T07:50:05;52261.00;;;-140.72;100.00
38197;BME280;26543;51.976;4.616;2022-07-29T07:52:32;52285.34;;;-140.72;100.00
38197;BME280;26543;51.976;4.616;2022-07-29T07:54:57;52236.66;;;-140.72;100.00
38197;BME280;26543;51.976;4.616;2022-07-29T07:57:23;52250.84;;;-140.72;100.00
38197;BME280;26543;51.976;4.616;2022-07-29T07:59:48;52228.53;;;-140.72;100.00
38197;BME280;26543;51.976;4.616;2022-07-29T08:02:13;52228.53;;;-140.72;100.00
38197;BME280;26543;51.976;4.616;2022-07-29T08:04:38;52279.25;;;-140.72;100.00
38197;BME280;26543;51.976;4.616;2022-07-29T08:07:05;52216.34;;;-140.72;100.00
38197;BME280;26543;51.976;4.616;2022-07-29T08:09:31;52234.63;;;-140.72;100.00
38197;BME280;26543;51.976;4.616;2022-07-29T08:11:56;52224.47;;;-140.72;100.00
38197;BME280;26543;51.976;4.616;2022-07-29T08:14:22;52175.78;;;-140.72;100.00
38197;BME280;26543;51.976;4.616;2022-07-29T08:16:47;52200.13;;;-140.72;100.00
38197;BME280;26543;51.976;4.616;2022-07-29T08:19:12;52185.94;;;-140.72;100.00
38197;BME280;26543;51.976;4.616;2022-07-29T08:21:38;52171.72;;;-140.72;38.82
38197;BME280;26543;51.976;4.616;2022-07-29T08:24:03;52196.06;;;-140.72;0.00
38197;BME280;26543;51.976;4.616;2022-07-29T08:26:48;52171.72;;;-140.72;0.00
38197;BME280;26543;51.976;4.616;2022-07-29T08:29:13;52151.44;;;-140.72;0.00
38197;BME280;26543;51.976;4.616;2022-07-29T08:31:39;52151.44;;;-140.72;0.00
38197;BME280;26543;51.976;4.616;2022-07-29T08:34:05;52143.31;;;-140.72;0.00
38197;BME280;26543;51.976;4.616;2022-07-29T08:36:31;52116.94;;;-140.72;0.00
38197;BME280;26543;51.976;4.616;2022-07-29T08:38:56;52133.16;;;-140.72;0.00
38197;BME280;26543;51.976;4.616;2022-07-29T08:41:21;52139.25;;;-140.72;0.00
38197;BME280;26543;51.976;4.616;2022-07-29T08:43:47;52086.50;;;-140.72;0.00
38197;BME280;26543;51.976;4.616;2022-07-29T08:46:12;52108.81;;;-140.72;0.00
38197;BME280;26543;51.976;4.616;2022-07-29T08:48:39;52098.69;;;-140.72;0.00
38197;BME280;26543;51.976;4.616;2022-07-29T08:51:05;52106.78;;;-140.72;0.00
38197;BME280;26543;51.976;4.616;2022-07-29T08:53:31;52084.47;;;-140.72;0.00
38197;BME280;26543;51.976;4.616;2022-07-29T08:55:57;52031.72;;;-140.72;0.00
38197;BME280;26543;51.976;4.616;2022-07-29T08:58:23;52017.53;;;-140.72;0.00
38197;BME280;26543;51.976;4.616;2022-07-29T09:00:50;52025.63;;;-140.72;0.00
38197;BME280;26543;51.976;4.616;2022-07-29T09:03:18;51997.22;;;-140.72;0.00
38197;BME280;26543;51.976;4.616;2022-07-29T09:05:46;51948.53;;;-140.72;0.00
38197;BME280;26543;51.976;4.616;2022-07-29T09:08:15;51991.16;;;-140.72;0.00
38197;BME280;26543;51.976;4.616;2022-07-29T09:10:41;51956.66;;;-140.72;0.00
38197;BME280;26543;51.976;4.616;2022-07-29T09:13:06;51948.53;;;-140.72;0.00
38197;BME280;26543;51.976;4.616;2022-07-29T09:15:32;51999.25;;;-140.72;0.00
38197;BME280;26543;51.976;4.616;2022-07-29T09:17:57;52017.53;;;-140.72;0.00
38197;BME280;26543;51.976;4.616;2022-07-29T09:20:24;51995.19;;;-140.72;0.00
38197;BME280;26543;51.976;4.616;2022-07-29T09:22:49;51962.75;;;-140.72;0.00
38197;BME280;26543;51.976;4.616;2022-07-29T09:25:36;51934.34;;;-140.72;0.00
38197;BME280;26543;51.976;4.616;2022-07-29T09:28:05;51942.44;;;-140.72;0.00
38197;BME280;26543;51.976;4.616;2022-07-29T09:30:30;51918.09;;;-140.72;0.00
38197;BME280;26543;51.976;4.616;2022-07-29T09:33:00;51930.28;;;-140.72;0.00
38197;BME280;26543;51.976;4.616;2022-07-29T09:35:28;51920.13;;;-140.72;0.00
38197;BME280;26543;51.976;4.616;2022-07-29T09:37:54;51871.44;;;-140.72;0.00
38197;BME280;26543;51.976;4.616;2022-07-29T09:40:20;51916.06;;;-140.72;0.00
38197;BME280;26543;51.976;4.616;2022-07-29T09:42:46;51871.44;;;-140.72;0.00
38197;BME280;26543;51.976;4.616;2022-07-29T09:45:12;51873.47;;;-140.72;0.00
38197;BME280;26543;51.976;4.616;2022-07-29T09:47:41;51903.91;;;-140.72;0.00
38197;BME280;26543;51.976;4.616;2022-07-29T09:50:07;51857.25;;;-140.72;0.00
38197;BME280;26543;51.976;4.616;2022-07-29T09:52:32;51830.88;;;-140.72;0.00
38197;BME280;26543;51.976;4.616;2022-07-29T09:55:10;51810.56;;;-140.72;0.00
38197;BME280;26543;51.976;4.616;2022-07-29T09:57:36;51800.44;;;-140.72;0.00
38197;BME280;26543;51.976;4.616;2022-07-29T10:02:33;51818.69;;;-140.72;0.00
38197;BME280;26543;51.976;4.616;2022-07-29T10:04:59;51788.25;;;-140.72;0.00
38197;BME280;26543;51.976;4.616;2022-07-29T10:07:25;51810.56;;;-140.72;0.00
38197;BME280;26543;51.976;4.616;2022-07-29T10:09:56;51800.44;;;-140.72;0.00
38197;BME280;26543;51.976;4.616;2022-07-29T10:12:22;51737.53;;;-140.72;0.00
38197;BME280;26543;51.976;4.616;2022-07-29T10:14:47;51774.06;;;-140.72;0.00
38197;BME280;26543;51.976;4.616;2022-07-29T10:17:13;51733.47;;;-140.72;0.00
38197;BME280;26543;51.976;4.616;2022-07-29T10:19:39;51699.00;;;-140.72;0.00
38197;BME280;26543;51.976;4.616;2022-07-29T10:22:07;51733.47;;;-140.72;0.00
38197;BME280;26543;51.976;4.616;2022-07-29T10:24:33;51737.53;;;-140.72;0.00
38197;BME280;26543;51.976;4.616;2022-07-29T10:26:59;51701.03;;;-140.72;0.00
38197;BME280;26543;51.976;4.616;2022-07-29T10:29:25;51719.28;;;-140.72;0.00
38197;BME280;26543;51.976;4.616;2022-07-29T10:32:02;51709.13;;;-140.72;0.00
38197;BME280;26543;51.976;4.616;2022-07-29T10:34:36;51682.75;;;-140.72;0.00
38197;BME280;26543;51.976;4.616;2022-07-29T10:42:25;51666.53;;;-140.72;0.00
38197;BME280;26543;51.976;4.616;2022-07-29T10:44:52;51656.38;;;-140.72;0.00
38197;BME280;26543;51.976;4.616;2022-07-29T10:47:24;51672.63;;;-140.72;0.00
38197;BME280;26543;51.976;4.616;2022-07-29T10:52:22;51630.00;;;-140.72;0.00
38197;BME280;26543;51.976;4.616;2022-07-29T10:54:49;51628.00;;;-140.72;0.00
38197;BME280;26543;51.976;4.616;2022-07-29T10:57:26;51615.81;;;-140.72;0.00
38197;BME280;26543;51.976;4.616;2022-07-29T11:07:22;51532.63;;;-140.72;0.00
38197;BME280;26543;51.976;4.616;2022-07-29T11:15:06;51534.66;;;-140.72;0.00
38197;BME280;26543;51.976;4.616;2022-07-29T11:20:36;51542.78;;;-140.72;0.00
38197;BME280;26543;51.976;4.616;2022-07-29T11:23:24;51526.56;;;-140.72;0.00
38197;BME280;26543;51.976;4.616;2022-07-29T11:28:36;51534.66;;;-140.72;0.00
38197;BME280;26543;51.976;4.616;2022-07-29T11:31:04;51496.13;;;-140.72;0.00
38197;BME280;26543;51.976;4.616;2022-07-29T11:33:30;51530.59;;;-140.72;0.00
38197;BME280;26543;51.976;4.616;2022-07-29T11:38:33;51506.25;;;-140.72;0.00
38197;BME280;26543;51.976;4.616;2022-07-29T11:43:49;51488.00;;;-140.72;0.00
38197;BME280;26543;51.976;4.616;2022-07-29T11:46:16;51496.13;;;-140.72;0.00
38197;BME280;26543;51.976;4.616;2022-07-29T11:48:42;51439.31;;;-140.72;0.00
38197;BME280;26543;51.976;4.616;2022-07-29T11:51:09;51473.81;;;-140.72;0.00
38197;BME280;26543;51.976;4.616;2022-07-29T11:53:34;51528.59;;;-140.72;0.00
38197;BME280;26543;51.976;4.616;2022-07-29T11:56:00;51500.19;;;-140.72;0.00
38197;BME280;26543;51.976;4.616;2022-07-29T11:58:26;51494.09;;;-140.72;0.00
38197;BME280;26543;51.976;4.616;2022-07-29T12:00:52;51524.53;;;-140.72;0.00
38197;BME280;26543;51.976;4.616;2022-07-29T12:03:25;51457.56;;;-140.72;0.00
38197;BME280;26543;51.976;4.616;2022-07-29T12:05:50;51390.63;;;-140.72;0.00
38197;BME280;26543;51.976;4.616;2022-07-29T12:10:44;51455.56;;;-140.72;0.00
38197;BME280;26543;51.976;4.616;2022-07-29T12:13:11;51400.78;;;-140.72;0.00
38197;BME280;26543;51.976;4.616;2022-07-29T12:15:36;51408.88;;;-140.72;0.00
38197;BME280;26543;51.976;4.616;2022-07-29T12:18:15;51410.91;;;-140.72;0.00
38197;BME280;26543;51.976;4.616;2022-07-29T12:20:41;51384.53;;;-140.72;0.00
38197;BME280;26543;51.976;4.616;2022-07-29T12:23:07;51410.91;;;-140.72;0.00
38197;BME280;26543;51.976;4.616;2022-07-29T12:25:34;51384.53;;;-140.72;0.00
38197;BME280;26543;51.976;4.616;2022-07-29T12:28:01;51457.56;;;-140.72;0.00
38197;BME280;26543;51.976;4.616;2022-07-29T12:33:37;51534.66;;;-140.72;0.00
38197;BME280;26543;51.976;4.616;2022-07-29T12:35:57;51508.28;;;-140.72;0.00
38197;BME280;26543;51.976;4.616;2022-07-29T12:38:22;51465.69;;;-140.72;0.00
38197;BME280;26543;51.976;4.616;2022-07-29T12:40:48;51398.75;;;-140.72;0.00
38197;BME280;26543;51.976;4.616;2022-07-29T12:43:15;51427.16;;;-140.72;0.00
38197;BME280;26543;51.976;4.616;2022-07-29T12:45:45;51404.84;;;-140.72;0.00
38197;BME280;26543;51.976;4.616;2022-07-29T12:48:11;51441.34;;;-140.72;0.00
38197;BME280;26543;51.976;4.616;2022-07-29T12:50:37;51410.91;;;-140.72;0.00
38197;BME280;26543;51.976;4.616;2022-07-29T12:53:16;51421.06;;;-140.72;0.00
38197;BME280;26543;51.976;4.616;2022-07-29T12:55:42;51398.75;;;-140.72;0.00
38197;BME280;26543;51.976;4.616;2022-07-29T12:58:07;51449.47;;;-140.72;0.00
38197;BME280;26543;51.976;4.616;2022-07-29T13:00:33;51451.50;;;-140.72;0.00
38197;BME280;26543;51.976;4.616;2022-07-29T13:02:58;51477.88;;;-140.72;0.00
38197;BME280;26543;51.976;4.616;2022-07-29T13:05:38;51457.56;;;-140.72;0.00
38197;BME280;26543;51.976;4.616;2022-07-29T13:08:10;51477.88;;;-140.72;0.00
38197;BME280;26543;51.976;4.616;2022-07-29T13:10:35;51473.81;;;-140.72;0.00
38197;BME280;26543;51.976;4.616;2022-07-29T13:13:11;51427.16;;;-140.72;0.00
38197;BME280;26543;51.976;4.616;2022-07-29T13:15:37;51500.19;;;-140.72;0.00
38197;BME280;26543;51.976;4.616;2022-07-29T13:18:03;51465.69;;;-140.72;0.00
38197;BME280;26543;51.976;4.616;2022-07-29T13:20:29;51374.41;;;-140.72;0.00
38197;BME280;26543;51.976;4.616;2022-07-29T13:22:55;51463.66;;;-140.72;0.00